Weather observations for the past three days for
Kenai, Kenai Municipal Airport
| Date | Time (akdt) | Wind (mph) | Vis. (mi.) | Weather | Sky Cond. | Temperature (ºF) | Relative Humidity | Wind Chill (°F) | Heat Index (°F) | Pressure | Precipitation (in) | ||||||
|---|---|---|---|---|---|---|---|---|---|---|---|---|---|---|---|---|---|
| Air | Dwpt | 6 hour | altimeter (in) | sea level (mb) | 1 hr | 3 hr | 6 hr | ||||||||||
| Max. | Min. | ||||||||||||||||
| 08 | 17:53 | N 10 | 10.00 | Overcast | SCT037 BKN050 OVC065 | 44.1 | 34 | 68% | 39 | 29.6 | 1002.5 | ||||||
| 08 | 16:53 | N 5 | 10.00 | Overcast | FEW028 BKN040 OVC048 | 43 | 35.1 | 74% | 41 | 29.62 | 1003.3 | ||||||
| 08 | 15:53 | NE 13 | 10.00 | Overcast | BKN034 OVC045 | 45 | 30 | 46 | 41 | 56% | 39 | 29.65 | 1004.1 | ||||
| 08 | 14:53 | N 13 | 10.00 | Overcast | SCT039 BKN055 OVC075 | 46 | 30.9 | 56% | 41 | 29.67 | 1004.8 | ||||||
| 08 | 13:53 | NE 10 G 17 | 10.00 | Overcast | FEW037 BKN080 OVC120 | 46 | 30 | 54% | 42 | 29.68 | 1005.3 | ||||||
| 08 | 12:53 | N 9 | 10.00 | Overcast | FEW032 BKN055 OVC110 | 44.1 | 30 | 58% | 40 | 29.7 | 1006.0 | ||||||
| 08 | 11:53 | NE 9 | 10.00 | Overcast | OVC110 | 44.1 | 30 | 58% | 40 | 29.73 | 1006.8 | ||||||
| 08 | 10:53 | N 8 | 10.00 | Overcast | OVC110 | 42.1 | 32 | 68% | 38 | 29.74 | 1007.4 | ||||||
| 08 | 09:53 | N 7 | 10.00 | Overcast | OVC120 | 41 | 34 | 42.1 | 32 | 76% | 37 | 29.77 | 1008.3 | ||||
| 08 | 08:53 | E 7 | 10.00 | Overcast | OVC065 | 39 | 35.1 | 86% | 35 | 29.79 | 1008.9 | ||||||
| 08 | 07:53 | Calm | 10.00 | Overcast | OVC060 | 34 | 33.1 | 97% | 29.8 | 1009.5 | |||||||
| 08 | 06:53 | NE 3 | 10.00 | Overcast | OVC120 | 33.1 | 30.9 | 92% | 29.82 | 1010.0 | |||||||
| 08 | 05:53 | Calm | 10.00 | Overcast | FEW065 OVC120 | 34 | 32 | 92% | 29.84 | 1010.6 | |||||||
| 08 | 04:53 | Calm | 10.00 | Overcast | OVC120 | 34 | 33.1 | 97% | 29.86 | 1011.2 | |||||||
| 08 | 03:53 | Calm | 10.00 | Overcast | OVC065 | 35.1 | 34 | 39 | 35.1 | 96% | 29.87 | 1011.8 | |||||
| 08 | 02:53 | Calm | 10.00 | Overcast | OVC060 | 36 | 35.1 | 97% | 29.9 | 1012.6 | |||||||
| 08 | 01:53 | SE 3 | 10.00 | Overcast | FEW028 OVC050 | 37 | 34 | 89% | 29.91 | 1013.1 | |||||||
| 08 | 00:53 | S 7 | 10.00 | Overcast | OVC055 | 37.9 | 34 | 86% | 33 | 29.92 | 1013.6 | ||||||
| 07 | 23:53 | S 7 | 10.00 | Overcast | FEW032 OVC055 | 37.9 | 34 | 86% | 33 | 29.94 | 1014.0 | ||||||
| 07 | 22:53 | Calm | 10.00 | Overcast | SCT023 OVC070 | 37.9 | 35.1 | 89% | 29.95 | 1014.4 | |||||||
| 07 | 21:53 | S 6 | 10.00 | Overcast | SCT029 BKN043 OVC060 | 39 | 34 | 45 | 39 | 82% | 35 | 29.95 | 1014.5 | ||||
| 07 | 20:53 | S 7 | 10.00 | Overcast | SCT046 OVC055 | 39 | 35.1 | 86% | 35 | 29.96 | 1014.8 | ||||||
| 07 | 19:53 | SW 8 | 10.00 | Overcast | BKN080 OVC095 | 39.9 | 34 | 79% | 35 | 29.97 | 1015.1 | ||||||
| 07 | 18:53 | SW 9 | 10.00 | Overcast | FEW070 BKN095 OVC110 | 41 | 34 | 76% | 36 | 29.98 | 1015.4 | ||||||
| 07 | 17:53 | SW 8 | 10.00 | Overcast | BKN060 OVC090 | 42.1 | 34 | 73% | 38 | 29.99 | 1015.6 | ||||||
| 07 | 16:53 | SW 10 | 10.00 | Overcast | FEW040 OVC090 | 44.1 | 34 | 68% | 39 | 30 | 1015.9 | ||||||
| 07 | 15:53 | SW 7 | 10.00 | Overcast | FEW048 SCT055 OVC085 | 44.1 | 34 | 45 | 41 | 68% | 41 | 30.01 | 1016.4 | ||||
| 07 | 14:53 | SW 7 | 10.00 | Overcast | SCT050 OVC085 | 44.1 | 34 | 68% | 41 | 30.02 | 1016.9 | ||||||
| 07 | 13:53 | SW 6 | 10.00 | Overcast | OVC047 | 42.1 | 35.1 | 76% | 39 | 30.03 | 1017.1 | ||||||
| 07 | 12:53 | SW 8 | 10.00 | Overcast | BKN055 OVC070 | 42.1 | 35.1 | 76% | 38 | 30.03 | 1017.2 | ||||||
| 07 | 10:53 | SW 9 | 10.00 | Overcast | OVC065 | 42.1 | 30 | 62% | 37 | 30.04 | 1017.5 | ||||||
| 07 | 09:53 | SW 9 | 10.00 | Overcast | SCT060 OVC120 | 43 | 30 | 43 | 36 | 60% | 38 | 30.04 | 1017.5 | ||||
| 07 | 08:53 | S 9 | 10.00 | Overcast | OVC120 | 42.1 | 28 | 58% | 37 | 30.04 | 1017.3 | ||||||
| 07 | 07:53 | SE 7 | 10.00 | A Few Clouds | FEW050 | 37 | 26.1 | 65% | 32 | 30.04 | 1017.5 | ||||||
| 07 | 06:53 | SE 7 | 10.00 | Overcast | OVC055 | 36 | 26.1 | 67% | 31 | 30.04 | 1017.5 | ||||||
| 07 | 05:53 | SE 7 | 10.00 | Mostly Cloudy | BKN065 | 37 | 25 | 62% | 32 | 30.04 | 1017.5 | ||||||
| 07 | 04:53 | S 8 | 10.00 | Overcast | OVC060 | 37 | 25 | 62% | 32 | 30.04 | 1017.4 | ||||||
| 07 | 03:53 | SE 8 | 10.00 | Overcast | OVC065 | 37 | 25 | 41 | 36 | 62% | 32 | 30.04 | 1017.4 | ||||
| 07 | 02:53 | SE 7 | 10.00 | Fair | CLR | 37 | 25 | 62% | 32 | 30.04 | 1017.4 | ||||||
| 07 | 01:53 | SE 8 | 10.00 | Fair | CLR | 37 | 26.1 | 65% | 32 | 30.03 | 1017.1 | ||||||
| 07 | 00:53 | S 8 | 10.00 | A Few Clouds | FEW060 | 37.9 | 27 | 65% | 33 | 30.02 | 1016.7 | ||||||
| 06 | 23:53 | S 10 | 10.00 | Partly Cloudy | SCT060 | 39 | 26.1 | 60% | 33 | 30.01 | 1016.3 | ||||||
| 06 | 22:53 | S 7 | 10.00 | A Few Clouds | FEW045 FEW060 | 39.9 | 28 | 63% | 36 | 30 | 1016.0 | ||||||
| 06 | 21:53 | S 13 | 10.00 | Partly Cloudy | SCT060 | 39.9 | 32 | 46 | 39.9 | 73% | 33 | 29.98 | 1015.5 | ||||
| 06 | 20:53 | SW 16 | 10.00 | Fair | CLR | 41 | 30.9 | 67% | 33 | 29.97 | 1015.1 | ||||||
| 06 | 19:53 | SW 16 | 10.00 | Fair | CLR | 43 | 30.9 | 63% | 36 | 29.96 | 1014.8 | ||||||
| 06 | 18:53 | SW 12 | 10.00 | Fair | CLR | 46 | 32 | 58% | 41 | 29.96 | 1014.6 | ||||||
| 06 | 17:53 | SW 10 | 10.00 | Mostly Cloudy | FEW049 BKN075 | 45 | 30.9 | 58% | 40 | 29.95 | 1014.5 | ||||||
| 06 | 16:53 | SW 12 | 10.00 | Overcast | FEW041 OVC070 | 45 | 35.1 | 68% | 40 | 29.95 | 1014.4 | ||||||
| 06 | 14:53 | SW 13 | 10.00 | Overcast | FEW019 BKN026 OVC075 | 44.1 | 36 | 73% | 38 | 29.93 | 1013.8 | ||||||
| 06 | 13:53 | S 7 | 10.00 | Overcast | OVC015 | 42.1 | 36 | 79% | 38 | 29.93 | 1013.6 | ||||||
| 06 | 12:53 | SW 7 | 10.00 | Overcast | OVC021 | 44.1 | 37.9 | 79% | 41 | 29.91 | 1013.2 | ||||||
| 06 | 11:53 | S 5 | 10.00 | Overcast | OVC018 | 43 | 37 | 80% | 41 | 29.9 | 1012.6 | ||||||
| 06 | 10:53 | S 5 | 10.00 | Overcast | OVC018 | 42.1 | 37 | 82% | 40 | 29.89 | 1012.2 | ||||||
| 06 | 09:53 | S 6 | 10.00 | Overcast | BKN012 OVC021 | 41 | 37 | 41 | 39 | 86% | 38 | 29.88 | 1011.9 | ||||
| 06 | 08:53 | S 6 | 10.00 | Overcast | FEW008 BKN016 OVC021 | 41 | 37.9 | 89% | 38 | 29.87 | 1011.6 | ||||||
| 06 | 07:53 | S 5 | 10.00 | Overcast | OVC020 | 39.9 | 37.9 | 93% | 37 | 29.85 | 1011.2 | ||||||
| 06 | 06:53 | SE 5 | 10.00 | Overcast | OVC022 | 39 | 37 | 93% | 36 | 29.84 | 1010.7 | ||||||
| 06 | 05:53 | SE 6 | 0.00 | Light Rain | OVC015 | 39 | 37 | 93% | 35 | 29.84 | 1010.6 | ||||||
| 06 | 04:53 | SE 6 | 0.00 | Light Rain | BKN019 OVC024 | 39 | 37.9 | 96% | 35 | 29.83 | 1010.3 | ||||||
| 06 | 03:53 | SE 7 | 0.00 | Light Rain | OVC014 | 39.9 | 37.9 | 41 | 39.9 | 93% | 36 | 29.82 | 1010.2 | 0.01 | |||
| 06 | 02:53 | S 7 | 0.00 | Light Rain | BKN015 OVC022 | 39.9 | 37.9 | 93% | 36 | 29.82 | 1010.0 | 0.01 | |||||
| 06 | 01:53 | S 8 | 0.00 | Light Rain | OVC036 | 39.9 | 37.9 | 93% | 35 | 29.82 | 1009.9 | ||||||
| 06 | 00:53 | S 13 | 0.00 | Light Rain | OVC041 | 41 | 37.9 | 89% | 34 | 29.8 | 1009.5 | ||||||
| 05 | 23:53 | S 12 | 0.00 | Light Rain | OVC048 | 39.9 | 37 | 89% | 34 | 29.79 | 1009.1 | ||||||
| 05 | 22:53 | SW 15 | 0.00 | Overcast | FEW042 OVC060 | 39.9 | 36 | 86% | 32 | 29.78 | 1008.7 | ||||||
| 05 | 21:53 | S 6 | 10.00 | Overcast | OVC047 | 39.9 | 35.1 | 54 | 39.9 | 83% | 36 | 29.76 | 1008.1 | ||||
| 05 | 20:53 | SW 10 | 10.00 | Overcast | OVC049 | 41 | 35.1 | 79% | 35 | 29.74 | 1007.4 | ||||||
| 05 | 19:53 | W 7 | 10.00 | Overcast | OVC050 | 48 | 35.1 | 61% | 45 | 29.72 | 1006.6 | ||||||
| 05 | 18:53 | W 9 | 10.00 | Overcast | OVC055 | 50 | 30 | 46% | 47 | 29.7 | 1005.9 | ||||||
| Date | Time (akdt) | Wind (mph) | Vis. (mi.) | Weather | Sky Cond. | Air | Dwpt | Max. | Min. | Relative Humidity | Wind Chill (°F) | Heat Index (°F) | altimeter (in) | sea level (mb) | 1 hr | 3 hr | 6 hr |
| 6 hour | |||||||||||||||||
| Temperature (ºF) | Pressure | Precipitation (in) | |||||||||||||||